createdAt,value
2022-08-17T00:00:51.988Z,21.30
2022-08-17T00:03:28.310Z,21.27
2022-08-17T00:06:04.609Z,21.30
2022-08-17T00:08:41.215Z,21.23
2022-08-17T00:11:17.447Z,21.21
2022-08-17T00:13:52.466Z,21.27
2022-08-17T00:16:56.501Z,21.25
2022-08-17T00:19:27.415Z,21.06
2022-08-17T00:22:34.672Z,21.20
2022-08-17T00:24:55.539Z,21.16
2022-08-17T00:27:29.490Z,21.23
2022-08-17T00:30:02.038Z,21.19
2022-08-17T00:33:11.612Z,21.21
2022-08-17T00:35:31.014Z,21.18
2022-08-17T00:38:05.220Z,21.16
2022-08-17T00:40:40.839Z,21.05
2022-08-17T00:43:22.752Z,21.12
2022-08-17T00:45:55.483Z,21.08
2022-08-17T00:48:30.655Z,20.91
2022-08-17T00:51:09.923Z,21.09
2022-08-17T00:53:45.941Z,21.04
2022-08-17T00:56:23.099Z,20.99
2022-08-17T00:58:58.276Z,20.98
2022-08-17T01:01:32.160Z,21.01
2022-08-17T01:04:05.740Z,20.95
2022-08-17T01:06:38.799Z,20.96
2022-08-17T01:09:11.644Z,20.89
2022-08-17T01:11:45.099Z,20.95
2022-08-17T01:14:21.338Z,20.86
2022-08-17T01:16:56.031Z,20.91
2022-08-17T01:19:31.517Z,20.87
2022-08-17T01:22:09.273Z,20.87
2022-08-17T01:24:47.517Z,20.85
2022-08-17T01:27:21.341Z,20.81
2022-08-17T01:29:58.776Z,20.78
2022-08-17T01:32:31.937Z,20.71
2022-08-17T01:35:06.798Z,20.71
2022-08-17T01:37:42.434Z,20.68
2022-08-17T01:40:23.192Z,20.70
2022-08-17T01:42:59.165Z,20.67
2022-08-17T01:45:39.365Z,20.67
2022-08-17T01:48:12.978Z,20.66
2022-08-17T01:50:47.123Z,20.65
2022-08-17T01:53:25.924Z,20.64
2022-08-17T01:56:05.847Z,20.60
2022-08-17T01:58:39.884Z,20.61
2022-08-17T02:01:15.341Z,20.61
2022-08-17T02:03:56.224Z,20.52
2022-08-17T02:06:52.753Z,20.55
2022-08-17T02:09:29.796Z,20.53
2022-08-17T02:12:38.056Z,20.56
2022-08-17T02:14:57.326Z,20.55
2022-08-17T02:17:30.172Z,20.54
2022-08-17T02:20:03.105Z,20.53
2022-08-17T02:22:36.564Z,20.53
2022-08-17T02:25:11.746Z,20.53
2022-08-17T02:27:45.978Z,20.50
2022-08-17T02:31:01.866Z,20.52
2022-08-17T02:33:11.651Z,20.52
2022-08-17T02:35:44.424Z,20.51
2022-08-17T02:38:17.548Z,20.53
2022-08-17T02:40:50.455Z,20.52
2022-08-17T02:43:24.447Z,20.52
2022-08-17T02:45:56.966Z,20.53
2022-08-17T02:48:31.043Z,20.52
2022-08-17T02:51:04.314Z,20.52
2022-08-17T02:53:37.470Z,20.47
2022-08-17T02:56:09.989Z,20.51
2022-08-17T02:58:44.184Z,20.53
2022-08-17T03:01:16.747Z,20.53
2022-08-17T03:03:49.330Z,20.54
2022-08-17T03:06:21.841Z,20.52
2022-08-17T03:08:54.850Z,20.58
2022-08-17T03:11:27.343Z,20.60
2022-08-17T03:14:01.261Z,20.59
2022-08-17T03:16:33.767Z,20.65
2022-08-17T03:19:07.474Z,20.66
2022-08-17T03:21:40.026Z,20.66
2022-08-17T03:24:13.296Z,20.71
2022-08-17T03:26:50.491Z,20.75
2022-08-17T03:29:24.718Z,20.80
2022-08-17T03:31:57.174Z,20.79
2022-08-17T03:34:29.722Z,20.86
2022-08-17T03:37:02.144Z,20.91
2022-08-17T03:39:35.152Z,20.92
2022-08-17T03:42:31.335Z,20.97
2022-08-17T03:45:10.675Z,20.98
2022-08-17T03:48:01.680Z,20.98
2022-08-17T03:50:53.120Z,21.03
2022-08-17T03:53:44.181Z,21.07
2022-08-17T03:56:35.284Z,21.10
2022-08-17T03:59:07.803Z,21.10
2022-08-17T04:01:58.573Z,21.10
2022-08-17T04:04:31.208Z,21.12
2022-08-17T04:07:04.093Z,21.14
2022-08-17T04:09:36.707Z,21.15
2022-08-17T04:12:09.778Z,21.18
2022-08-17T04:14:52.586Z,21.19
2022-08-17T04:17:29.481Z,21.21
2022-08-17T04:20:02.104Z,21.15
2022-08-17T04:22:35.833Z,21.24
2022-08-17T04:25:14.074Z,21.26
2022-08-17T04:27:46.684Z,21.28
2022-08-17T04:30:19.481Z,21.28
2022-08-17T04:33:04.769Z,21.22
2022-08-17T04:35:41.358Z,21.30
2022-08-17T04:38:16.142Z,21.33
2022-08-17T04:41:07.171Z,21.36
2022-08-17T04:43:41.528Z,21.42
2022-08-17T04:46:19.318Z,21.56
2022-08-17T04:48:56.268Z,21.63
2022-08-17T04:51:32.155Z,21.77
2022-08-17T04:54:06.858Z,21.92
2022-08-17T04:56:39.841Z,22.05
2022-08-17T04:59:16.813Z,22.14
2022-08-17T05:01:51.982Z,22.19
2022-08-17T05:04:34.009Z,22.18
2022-08-17T05:07:07.896Z,22.13
2022-08-17T05:09:40.334Z,22.13
2022-08-17T05:12:13.170Z,22.06
2022-08-17T05:14:45.960Z,22.02
2022-08-17T05:17:18.419Z,22.11
2022-08-17T05:19:52.305Z,22.16
2022-08-17T05:22:24.821Z,22.23
2022-08-17T05:24:57.534Z,22.31
2022-08-17T05:27:35.314Z,22.37
2022-08-17T05:30:09.157Z,22.46
2022-08-17T05:32:52.167Z,22.51
2022-08-17T05:35:28.124Z,22.63
2022-08-17T05:38:01.034Z,22.77
2022-08-17T05:40:33.850Z,22.91
2022-08-17T05:43:08.759Z,23.06
2022-08-17T05:45:55.742Z,23.22
2022-08-17T05:48:39.144Z,23.43
2022-08-17T05:51:29.816Z,23.65
2022-08-17T05:54:13.408Z,23.88
2022-08-17T05:57:03.339Z,24.09
2022-08-17T05:59:49.144Z,24.29
2022-08-17T06:02:30.081Z,24.47
2022-08-17T06:05:16.972Z,24.61
2022-08-17T06:07:58.052Z,24.73
2022-08-17T06:10:40.829Z,24.86
2022-08-17T06:13:23.482Z,24.92
2022-08-17T06:16:03.239Z,25.03
2022-08-17T06:18:44.414Z,25.10
2022-08-17T06:21:19.296Z,25.12
2022-08-17T06:24:05.865Z,25.14
2022-08-17T06:26:43.405Z,25.17
2022-08-17T06:29:25.204Z,25.21
2022-08-17T06:31:57.869Z,25.20
2022-08-17T06:34:31.865Z,25.17
2022-08-17T06:37:12.619Z,25.11
2022-08-17T06:39:58.131Z,25.10
2022-08-17T06:43:05.074Z,25.14
2022-08-17T06:45:43.693Z,25.23
2022-08-17T06:48:24.977Z,25.34
2022-08-17T06:51:03.034Z,25.49
2022-08-17T06:53:40.766Z,25.58
2022-08-17T06:56:24.038Z,25.66
2022-08-17T06:58:58.106Z,25.70
2022-08-17T07:01:34.513Z,25.72
2022-08-17T07:04:13.825Z,25.66
2022-08-17T07:06:51.213Z,25.63
2022-08-17T07:09:28.876Z,25.58
2022-08-17T07:12:11.501Z,25.55
2022-08-17T07:14:53.725Z,25.52
2022-08-17T07:17:36.959Z,25.46
2022-08-17T07:20:22.812Z,25.45
2022-08-17T07:23:08.907Z,25.42
2022-08-17T07:25:41.450Z,25.38
2022-08-17T07:28:23.062Z,25.35
2022-08-17T07:30:55.629Z,25.34
2022-08-17T07:33:31.260Z,25.31
2022-08-17T07:36:04.213Z,25.26
2022-08-17T07:38:56.892Z,25.27
2022-08-17T07:41:57.896Z,25.32
2022-08-17T07:44:29.080Z,25.35
2022-08-17T07:47:19.912Z,25.40
2022-08-17T07:49:52.449Z,25.42
2022-08-17T07:52:50.642Z,25.48
2022-08-17T07:55:27.892Z,25.51
2022-08-17T07:58:00.403Z,25.53
2022-08-17T08:00:34.553Z,25.55
2022-08-17T08:03:26.239Z,25.56
2022-08-17T08:06:02.371Z,25.59
2022-08-17T08:08:42.413Z,25.65
2022-08-17T08:11:29.830Z,25.70
2022-08-17T08:14:20.819Z,25.77
2022-08-17T08:17:01.131Z,25.85
2022-08-17T08:19:34.541Z,25.90
2022-08-17T08:22:13.116Z,25.96
2022-08-17T08:24:59.064Z,26.02
2022-08-17T08:27:42.410Z,26.08
2022-08-17T08:30:18.613Z,26.14
2022-08-17T08:33:08.818Z,26.18
2022-08-17T08:35:46.154Z,26.22
2022-08-17T08:38:29.488Z,26.25
2022-08-17T08:41:14.666Z,26.27
2022-08-17T08:43:56.964Z,26.29
2022-08-17T08:46:35.591Z,26.29
2022-08-17T08:50:01.885Z,26.31
2022-08-17T08:52:46.041Z,26.31
2022-08-17T08:55:28.993Z,26.32
2022-08-17T08:58:08.553Z,26.34
2022-08-17T09:01:08.985Z,26.39
2022-08-17T09:04:23.272Z,26.44
2022-08-17T09:07:12.266Z,26.50
2022-08-17T09:09:59.402Z,26.53
2022-08-17T09:12:41.894Z,26.53
2022-08-17T09:15:20.366Z,26.52
2022-08-17T09:18:58.922Z,26.52
2022-08-17T09:20:57.477Z,26.51
2022-08-17T09:23:37.541Z,26.51
2022-08-17T09:26:16.378Z,26.47
2022-08-17T09:28:52.036Z,26.44
2022-08-17T09:31:48.732Z,26.41
2022-08-17T09:34:33.054Z,26.35
2022-08-17T09:37:17.715Z,26.30
2022-08-17T09:40:02.421Z,26.28
2022-08-17T09:42:43.741Z,26.25
2022-08-17T09:45:28.353Z,26.19
2022-08-17T09:48:05.682Z,26.17
2022-08-17T09:51:04.094Z,26.18
2022-08-17T09:53:37.700Z,26.18
2022-08-17T09:56:32.792Z,26.19
2022-08-17T09:59:45.110Z,26.20
2022-08-17T10:02:43.628Z,26.22
2022-08-17T10:05:21.915Z,26.23
2022-08-17T10:08:01.926Z,26.26
2022-08-17T10:10:43.443Z,26.27
2022-08-17T10:13:36.628Z,26.31
2022-08-17T10:16:19.713Z,26.32
2022-08-17T10:19:05.053Z,26.36
2022-08-17T10:22:00.815Z,26.38
2022-08-17T10:24:57.663Z,26.42
2022-08-17T10:27:54.314Z,26.43
2022-08-17T10:30:32.934Z,26.47
2022-08-17T10:33:13.587Z,26.52
2022-08-17T10:35:57.230Z,26.55
2022-08-17T10:38:41.352Z,26.60
2022-08-17T10:41:27.803Z,26.61
2022-08-17T10:44:40.359Z,26.68
2022-08-17T10:47:07.718Z,26.71
2022-08-17T10:49:47.776Z,26.76
2022-08-17T10:52:47.929Z,26.85
2022-08-17T10:55:20.733Z,26.94
2022-08-17T10:58:21.152Z,27.02
2022-08-17T11:00:58.647Z,27.07
2022-08-17T11:03:33.159Z,27.11
2022-08-17T11:06:15.809Z,27.19
2022-08-17T11:09:20.216Z,27.23
2022-08-17T11:12:09.276Z,27.26
2022-08-17T11:14:53.714Z,27.32
2022-08-17T11:17:50.478Z,27.36
2022-08-17T11:20:47.847Z,27.37
2022-08-17T11:23:56.024Z,27.38
2022-08-17T11:26:32.186Z,27.38
2022-08-17T11:29:09.737Z,27.37
2022-08-17T11:31:58.333Z,27.42
2022-08-17T11:34:33.130Z,27.45
2022-08-17T11:37:35.194Z,27.47
2022-08-17T11:40:41.313Z,27.46
2022-08-17T11:43:27.544Z,27.43
2022-08-17T11:46:14.510Z,27.40
2022-08-17T11:49:18.969Z,27.38
2022-08-17T11:52:12.121Z,27.36
2022-08-17T11:54:47.973Z,27.34
2022-08-17T11:58:05.660Z,27.32
2022-08-17T12:00:52.112Z,27.31
2022-08-17T12:03:54.113Z,27.31
2022-08-17T12:06:41.555Z,27.32
2022-08-17T12:09:19.046Z,27.34
2022-08-17T12:12:12.523Z,27.37
2022-08-17T12:15:10.595Z,27.35
2022-08-17T12:17:52.752Z,27.37
2022-08-17T12:20:29.029Z,27.37
2022-08-17T12:23:10.112Z,27.37
2022-08-17T12:25:47.564Z,27.36
2022-08-17T12:28:27.110Z,27.35
2022-08-17T12:31:03.344Z,27.36
2022-08-17T12:33:37.421Z,27.37
2022-08-17T12:36:15.292Z,27.37
2022-08-17T12:38:59.721Z,27.41
2022-08-17T12:41:50.560Z,27.43
2022-08-17T12:44:29.675Z,27.49
2022-08-17T12:47:07.834Z,27.52
2022-08-17T12:49:42.493Z,27.56
2022-08-17T12:52:17.813Z,27.60
2022-08-17T12:54:54.413Z,27.62
2022-08-17T12:57:32.880Z,27.61
2022-08-17T13:00:16.507Z,27.61
2022-08-17T13:02:52.269Z,27.58
2022-08-17T13:05:27.865Z,27.59
2022-08-17T13:08:00.639Z,27.59
2022-08-17T13:10:36.268Z,27.59
2022-08-17T13:13:22.401Z,27.60
2022-08-17T13:15:58.918Z,27.56
2022-08-17T13:18:41.063Z,27.54
2022-08-17T13:21:28.288Z,27.49
2022-08-17T13:24:04.127Z,27.48
2022-08-17T13:26:40.956Z,27.45
2022-08-17T13:29:22.053Z,27.45
2022-08-17T13:32:13.975Z,27.44
2022-08-17T13:35:11.955Z,27.40
2022-08-17T13:38:01.751Z,27.33
2022-08-17T13:40:44.875Z,27.33
2022-08-17T13:43:40.249Z,27.29
2022-08-17T13:46:19.795Z,27.18
2022-08-17T13:49:02.767Z,27.17
2022-08-17T13:51:41.700Z,27.12
2022-08-17T13:54:26.127Z,27.12
2022-08-17T13:57:02.052Z,27.08
2022-08-17T13:59:54.546Z,27.01
2022-08-17T14:02:28.932Z,27.01
2022-08-17T14:05:06.321Z,26.99
2022-08-17T14:07:40.937Z,26.97
2022-08-17T14:10:17.555Z,26.96
2022-08-17T14:12:50.780Z,26.96
2022-08-17T14:15:55.984Z,26.94
2022-08-17T14:18:19.141Z,26.94
2022-08-17T14:21:13.605Z,26.94
2022-08-17T14:23:48.999Z,26.92
2022-08-17T14:26:27.777Z,26.93
2022-08-17T14:29:00.572Z,26.92
2022-08-17T14:31:37.399Z,26.92
2022-08-17T14:34:10.919Z,26.91
2022-08-17T14:36:45.511Z,26.90
2022-08-17T14:39:21.331Z,26.89
2022-08-17T14:41:55.310Z,26.89
2022-08-17T14:44:27.821Z,26.86
2022-08-17T14:47:00.424Z,26.83
2022-08-17T14:49:33.106Z,26.82
2022-08-17T14:52:07.202Z,26.79
2022-08-17T14:54:45.127Z,26.75
2022-08-17T14:57:32.918Z,26.73
2022-08-17T15:00:08.991Z,26.68
2022-08-17T15:02:48.381Z,26.65
2022-08-17T15:05:23.317Z,26.60
2022-08-17T15:07:57.453Z,26.56
2022-08-17T15:10:30.785Z,26.52
2022-08-17T15:13:03.590Z,26.48
2022-08-17T15:15:36.688Z,26.46
2022-08-17T15:18:09.371Z,26.39
2022-08-17T15:20:42.978Z,26.34
2022-08-17T15:23:19.319Z,26.35
2022-08-17T15:25:53.342Z,26.29
2022-08-17T15:28:26.060Z,26.30
2022-08-17T15:30:58.654Z,26.29
2022-08-17T15:33:31.494Z,26.25
2022-08-17T15:36:06.697Z,26.23
2022-08-17T15:38:40.851Z,26.18
2022-08-17T15:41:18.599Z,26.17
2022-08-17T15:43:51.154Z,26.15
2022-08-17T15:46:25.592Z,26.11
2022-08-17T15:48:59.888Z,26.05
2022-08-17T15:51:34.130Z,26.07
2022-08-17T15:54:19.110Z,26.03
2022-08-17T15:56:55.120Z,26.05
2022-08-17T15:59:29.737Z,26.05
2022-08-17T16:03:14.597Z,26.04
2022-08-17T16:04:55.242Z,26.03
2022-08-17T16:07:27.746Z,26.02
2022-08-17T16:10:02.063Z,26.01
2022-08-17T16:12:36.432Z,25.99
2022-08-17T16:15:09.989Z,25.97
2022-08-17T16:17:42.760Z,25.95
2022-08-17T16:20:20.678Z,25.96
2022-08-17T16:22:54.530Z,25.94
2022-08-17T16:25:53.267Z,25.89
2022-08-17T16:28:30.841Z,25.87
2022-08-17T16:31:09.395Z,25.83
2022-08-17T16:33:42.404Z,25.79
2022-08-17T16:36:35.456Z,25.79
2022-08-17T16:39:08.332Z,25.72
2022-08-17T16:41:45.907Z,25.72
2022-08-17T16:44:21.286Z,25.71
2022-08-17T16:46:53.892Z,25.68
2022-08-17T16:49:37.130Z,25.64
2022-08-17T16:52:11.286Z,25.62
2022-08-17T16:54:46.698Z,25.57
2022-08-17T16:57:33.799Z,25.53
2022-08-17T17:00:09.237Z,25.50
2022-08-17T17:02:47.513Z,25.41
2022-08-17T17:05:33.335Z,25.39
2022-08-17T17:08:09.929Z,25.36
2022-08-17T17:10:46.078Z,25.31
2022-08-17T17:13:30.991Z,25.29
2022-08-17T17:16:12.200Z,25.23
2022-08-17T17:18:59.081Z,25.20
2022-08-17T17:21:42.565Z,25.16
2022-08-17T17:24:22.187Z,25.12
2022-08-17T17:27:12.049Z,25.09
2022-08-17T17:29:59.711Z,25.03
2022-08-17T17:32:39.325Z,24.96
2022-08-17T17:35:20.989Z,24.91
2022-08-17T17:37:57.484Z,24.84
2022-08-17T17:40:37.710Z,24.79
2022-08-17T17:43:37.019Z,24.74
2022-08-17T17:46:26.698Z,24.65
2022-08-17T17:49:01.550Z,24.65
2022-08-17T17:52:09.605Z,24.61
2022-08-17T17:54:52.990Z,24.58
2022-08-17T17:57:35.054Z,24.57
2022-08-17T18:00:13.278Z,24.54
2022-08-17T18:03:22.599Z,24.50
2022-08-17T18:06:10.354Z,24.46
2022-08-17T18:08:55.033Z,24.39
2022-08-17T18:11:51.392Z,24.34
2022-08-17T18:14:39.218Z,24.34
2022-08-17T18:17:12.056Z,24.30
2022-08-17T18:19:48.635Z,24.25
2022-08-17T18:22:22.736Z,24.22
2022-08-17T18:24:57.362Z,24.16
2022-08-17T18:27:38.571Z,24.10
2022-08-17T18:30:26.243Z,24.05
2022-08-17T18:33:22.139Z,23.99
2022-08-17T18:35:59.480Z,23.98
2022-08-17T18:38:35.952Z,23.93
2022-08-17T18:41:19.380Z,23.91
2022-08-17T18:44:01.907Z,23.91
2022-08-17T18:46:37.653Z,23.90
2022-08-17T18:49:26.285Z,23.92
2022-08-17T18:52:12.302Z,23.95
2022-08-17T18:55:04.401Z,23.91
2022-08-17T18:57:40.645Z,23.87
2022-08-17T19:00:18.450Z,23.80
2022-08-17T19:02:54.098Z,23.80
2022-08-17T19:05:40.065Z,23.77
2022-08-17T19:08:20.970Z,23.72
2022-08-17T19:10:57.541Z,23.62
2022-08-17T19:13:34.187Z,23.59
2022-08-17T19:16:14.601Z,23.44
2022-08-17T19:18:53.913Z,23.47
2022-08-17T19:21:34.934Z,23.42
2022-08-17T19:24:19.880Z,23.38
2022-08-17T19:26:57.582Z,23.36
2022-08-17T19:29:37.256Z,23.33
2022-08-17T19:32:12.685Z,23.35
2022-08-17T19:34:45.437Z,23.36
2022-08-17T19:37:30.688Z,23.36
2022-08-17T19:40:24.508Z,23.34
2022-08-17T19:43:15.544Z,23.28
2022-08-17T19:45:59.574Z,23.21
2022-08-17T19:48:45.695Z,23.13
2022-08-17T19:51:26.588Z,23.11
2022-08-17T19:54:06.381Z,23.04
2022-08-17T19:56:48.090Z,23.01
2022-08-17T19:59:35.830Z,22.95
2022-08-17T20:02:21.936Z,22.89
2022-08-17T20:04:59.385Z,22.83
2022-08-17T20:07:43.725Z,22.79
2022-08-17T20:10:26.588Z,22.75
2022-08-17T20:13:08.004Z,22.69
2022-08-17T20:15:43.240Z,22.58
2022-08-17T20:18:24.446Z,22.62
2022-08-17T20:21:01.778Z,22.60
2022-08-17T20:23:46.304Z,22.59
2022-08-17T20:26:23.138Z,22.56
2022-08-17T20:29:09.772Z,22.54
2022-08-17T20:31:46.165Z,22.53
2022-08-17T20:34:31.051Z,22.51
2022-08-17T20:37:26.217Z,22.52
2022-08-17T20:40:21.558Z,22.51
2022-08-17T20:42:55.105Z,22.49
2022-08-17T20:45:54.136Z,22.49
2022-08-17T20:48:38.421Z,22.46
2022-08-17T20:51:23.225Z,22.36
2022-08-17T20:54:33.693Z,22.39
2022-08-17T20:57:14.107Z,22.35
2022-08-17T21:00:16.127Z,22.32
2022-08-17T21:02:52.198Z,22.30
2022-08-17T21:05:32.471Z,22.28
2022-08-17T21:08:15.339Z,22.25
2022-08-17T21:10:48.261Z,22.14
2022-08-17T21:13:41.070Z,22.21
2022-08-17T21:16:30.246Z,22.11
2022-08-17T21:19:17.208Z,22.12
2022-08-17T21:22:01.991Z,22.05
2022-08-17T21:24:48.197Z,22.05
2022-08-17T21:27:33.891Z,22.03
2022-08-17T21:30:22.816Z,21.94
2022-08-17T21:33:20.851Z,21.99
2022-08-17T21:36:13.276Z,21.96
2022-08-17T21:39:02.543Z,21.95
2022-08-17T21:41:46.692Z,21.93
2022-08-17T21:44:27.776Z,21.88
2022-08-17T21:47:18.585Z,21.89
2022-08-17T21:49:51.794Z,21.88
2022-08-17T21:52:27.834Z,21.87
2022-08-17T21:55:02.610Z,21.86
2022-08-17T21:57:53.142Z,21.83
2022-08-17T22:00:36.401Z,21.80
2022-08-17T22:03:23.789Z,21.78
2022-08-17T22:05:56.297Z,21.76
2022-08-17T22:08:30.294Z,21.77
2022-08-17T22:11:02.927Z,21.72
2022-08-17T22:13:38.877Z,21.76
2022-08-17T22:16:28.098Z,21.76
2022-08-17T22:19:04.547Z,21.75
2022-08-17T22:21:37.101Z,21.74
2022-08-17T22:24:22.831Z,21.75
2022-08-17T22:27:07.719Z,21.76
2022-08-17T22:29:57.440Z,21.69
2022-08-17T22:32:37.492Z,21.72
2022-08-17T22:35:32.698Z,21.69
2022-08-17T22:38:32.439Z,21.70
2022-08-17T22:41:40.805Z,21.64
2022-08-17T22:44:17.720Z,21.58
2022-08-17T22:46:58.902Z,21.51
2022-08-17T22:49:38.613Z,21.45
2022-08-17T22:52:33.056Z,21.38
2022-08-17T22:55:31.529Z,21.33
2022-08-17T22:58:31.457Z,21.29
2022-08-17T23:01:28.545Z,21.24
2022-08-17T23:04:04.821Z,21.17
2022-08-17T23:06:39.716Z,21.18
2022-08-17T23:09:12.237Z,21.13
2022-08-17T23:11:49.950Z,21.13
2022-08-17T23:14:31.724Z,21.09
2022-08-17T23:17:04.486Z,21.04
2022-08-17T23:19:37.045Z,21.01
2022-08-17T23:22:10.583Z,20.97
2022-08-17T23:24:46.556Z,20.93
2022-08-17T23:27:19.995Z,20.88
2022-08-17T23:29:54.297Z,20.84
2022-08-17T23:32:27.330Z,20.79
2022-08-17T23:34:59.950Z,20.75
2022-08-17T23:37:32.379Z,20.71
2022-08-17T23:40:06.001Z,20.68
2022-08-17T23:42:46.156Z,20.65
2022-08-17T23:45:20.752Z,20.62
2022-08-17T23:47:53.270Z,20.61
2022-08-17T23:50:30.025Z,20.59
2022-08-17T23:53:04.393Z,20.54
2022-08-17T23:55:37.249Z,20.51
2022-08-17T23:58:09.752Z,20.48
